Time;durP1;ratioP1;P1;durP2;ratioP2;P2;SDS_P1;SDS_P2;PMS_P1;PMS_P2;Temp;Humidity;BMP_temperature;BMP_pressure;BME280_temperature;BME280_humidity;BME280_pressure;Samples;Min_cycle;Max_cycle;Signal;HPM_P1;HPM_P2
2023/08/25 00:00:40;;;;;;;5.40;3.57;;;;;;;;;;5012597;28;20223;-70
2023/08/25 00:03:06;;;;;;;6.87;3.90;;;;;;;;;;5012538;28;20184;-69
2023/08/25 00:05:36;;;;;;;7.23;4.40;;;;;;;;;;5012375;28;20180;-69
2023/08/25 00:08:02;;;;;;;7.77;4.40;;;;;;;;;;5011586;28;20725;-68
2023/08/25 00:10:28;;;;;;;7.40;4.20;;;;;;;;;;5012273;28;20298;-70
2023/08/25 00:12:55;;;;;;;8.67;3.97;;;;;;;;;;5012377;28;20220;-70
2023/08/25 00:15:21;;;;;;;8.80;4.00;;;;;;;;;;5012354;28;20255;-70
2023/08/25 00:17:46;;;;;;;7.23;3.97;;;;;;;;;;5011506;28;20661;-70
2023/08/25 00:20:12;;;;;;;9.70;4.43;;;;;;;;;;5012331;28;20200;-69
2023/08/25 00:22:41;;;;;;;10.87;4.00;;;;;;;;;;5012134;28;20180;-70
2023/08/25 00:25:08;;;;;;;5.53;3.60;;;;;;;;;;5012092;28;20805;-69
2023/08/25 00:27:34;;;;;;;8.53;3.37;;;;;;;;;;5026409;28;20177;-68
2023/08/25 00:30:00;;;;;;;5.97;3.50;;;;;;;;;;5011075;28;20678;-70
2023/08/25 00:32:25;;;;;;;7.07;4.00;;;;;;;;;;5011987;28;20172;-70
2023/08/25 00:34:51;;;;;;;12.27;4.00;;;;;;;;;;5012015;28;20795;-70
2023/08/25 00:37:17;;;;;;;6.23;3.77;;;;;;;;;;5011105;28;20637;-70
2023/08/25 00:39:43;;;;;;;7.47;4.07;;;;;;;;;;5011811;28;20204;-70
2023/08/25 00:42:09;;;;;;;6.43;3.70;;;;;;;;;;5010837;28;20184;-70
2023/08/25 00:44:35;;;;;;;6.17;3.73;;;;;;;;;;5011861;28;20173;-69
2023/08/25 00:47:01;;;;;;;5.47;3.47;;;;;;;;;;5011029;28;20199;-70
2023/08/25 00:49:27;;;;;;;7.33;4.47;;;;;;;;;;5011585;28;20232;-70
2023/08/25 00:51:53;;;;;;;6.13;3.80;;;;;;;;;;5026649;28;20673;-70
2023/08/25 00:54:20;;;;;;;7.13;3.63;;;;;;;;;;5011705;28;20172;-70
2023/08/25 00:56:46;;;;;;;10.00;3.90;;;;;;;;;;5011002;28;20187;-70
2023/08/25 00:59:12;;;;;;;7.27;3.67;;;;;;;;;;5026504;28;20216;-70
2023/08/25 01:01:38;;;;;;;9.17;3.77;;;;;;;;;;5011443;28;20685;-70
2023/08/25 01:04:04;;;;;;;6.63;3.73;;;;;;;;;;5011421;28;20665;-70
2023/08/25 01:06:29;;;;;;;8.98;4.22;;;;;;;;;;5010854;28;20905;-70
2023/08/25 01:08:55;;;;;;;8.67;3.63;;;;;;;;;;5010282;28;20220;-69
2023/08/25 01:11:31;;;;;;;5.57;3.57;;;;;;;;;;5011410;28;20168;-69
2023/08/25 01:14:09;;;;;;;6.00;3.40;;;;;;;;;;5011340;28;20258;-69
2023/08/25 01:16:36;;;;;;;5.90;3.33;;;;;;;;;;5011247;28;20200;-70
2023/08/25 01:19:03;;;;;;;7.83;3.67;;;;;;;;;;5025700;28;20670;-70
2023/08/25 01:21:30;;;;;;;8.00;4.07;;;;;;;;;;5011111;28;20179;-69
2023/08/25 01:24:09;;;;;;;7.00;3.97;;;;;;;;;;5011270;28;20175;-70
2023/08/25 01:26:35;;;;;;;8.63;3.90;;;;;;;;;;5011465;28;20751;-69
2023/08/25 01:29:01;;;;;;;8.93;3.80;;;;;;;;;;5008530;28;20223;-70
2023/08/25 01:31:27;;;;;;;10.67;3.97;;;;;;;;;;5011119;28;20649;-69
2023/08/25 01:33:55;;;;;;;8.37;3.90;;;;;;;;;;5011079;28;20177;-70
2023/08/25 01:36:25;;;;;;;6.43;3.97;;;;;;;;;;5010948;28;20222;-70
2023/08/25 01:39:03;;;;;;;6.40;3.63;;;;;;;;;;5010318;28;20487;-70
2023/08/25 01:41:33;;;;;;;9.20;4.30;;;;;;;;;;5025585;28;20217;-68
2023/08/25 01:44:02;;;;;;;10.27;3.83;;;;;;;;;;5026201;28;20176;-69
2023/08/25 01:46:28;;;;;;;9.33;4.07;;;;;;;;;;5026028;28;20267;-69
2023/08/25 01:48:54;;;;;;;11.63;4.27;;;;;;;;;;5010153;28;20678;-69
2023/08/25 01:51:20;;;;;;;13.87;4.30;;;;;;;;;;5010802;28;20185;-67
2023/08/25 01:53:48;;;;;;;13.63;4.50;;;;;;;;;;5026000;28;20176;-68
2023/08/25 01:56:14;;;;;;;6.20;3.67;;;;;;;;;;5026029;28;20239;-69
2023/08/25 01:58:39;;;;;;;7.60;3.43;;;;;;;;;;5010072;28;20674;-68
2023/08/25 02:01:05;;;;;;;10.23;4.50;;;;;;;;;;5010853;28;20638;-69
2023/08/25 02:03:31;;;;;;;11.17;4.20;;;;;;;;;;5010809;28;20198;-70
2023/08/25 02:05:57;;;;;;;8.30;4.00;;;;;;;;;;5009773;28;20714;-70
2023/08/25 02:08:23;;;;;;;6.47;4.30;;;;;;;;;;5009982;28;20685;-70
2023/08/25 02:10:49;;;;;;;8.63;3.60;;;;;;;;;;5010543;28;20291;-70
2023/08/25 02:13:15;;;;;;;10.17;4.20;;;;;;;;;;5010766;28;20181;-70
2023/08/25 02:15:49;;;;;;;9.20;4.27;;;;;;;;;;5010722;28;20183;-70
2023/08/25 02:18:15;;;;;;;11.43;4.20;;;;;;;;;;5010057;28;20164;-70
2023/08/25 02:20:41;;;;;;;10.07;3.90;;;;;;;;;;5010539;28;20559;-70
2023/08/25 02:23:07;;;;;;;6.70;3.50;;;;;;;;;;5025781;28;20547;-70
2023/08/25 02:25:33;;;;;;;10.27;4.27;;;;;;;;;;5010689;28;20181;-69
2023/08/25 02:27:59;;;;;;;9.23;4.10;;;;;;;;;;5008876;28;20652;-70
2023/08/25 02:30:25;;;;;;;7.43;4.00;;;;;;;;;;5010511;28;20216;-68
2023/08/25 02:32:51;;;;;;;7.27;4.00;;;;;;;;;;5010534;28;20185;-69
2023/08/25 02:35:17;;;;;;;8.37;4.37;;;;;;;;;;5009510;28;20185;-69
2023/08/25 02:37:57;;;;;;;13.47;4.30;;;;;;;;;;5009652;28;20200;-70
2023/08/25 02:40:23;;;;;;;9.30;4.37;;;;;;;;;;5010765;28;20549;-70
2023/08/25 02:42:49;;;;;;;10.10;4.37;;;;;;;;;;5010448;28;20180;-69
2023/08/25 02:45:15;;;;;;;7.60;4.20;;;;;;;;;;5010392;28;20646;-70
2023/08/25 02:47:41;;;;;;;9.50;4.60;;;;;;;;;;5009769;28;20587;-68
2023/08/25 02:50:07;;;;;;;10.57;4.00;;;;;;;;;;5010253;28;20678;-69
2023/08/25 02:52:32;;;;;;;10.37;4.40;;;;;;;;;;5010490;28;20175;-70
2023/08/25 02:54:58;;;;;;;9.87;4.13;;;;;;;;;;5012572;28;20675;-71
2023/08/25 02:57:24;;;;;;;7.20;3.90;;;;;;;;;;5028272;28;20172;-70
2023/08/25 02:59:50;;;;;;;9.97;4.40;;;;;;;;;;5013645;28;20674;-70
2023/08/25 03:02:16;;;;;;;9.07;4.50;;;;;;;;;;5013774;28;20607;-70
2023/08/25 03:04:42;;;;;;;8.00;4.30;;;;;;;;;;5013763;28;20658;-70
2023/08/25 03:07:08;;;;;;;6.70;4.17;;;;;;;;;;5012830;28;20674;-68
2023/08/25 03:09:34;;;;;;;7.90;4.20;;;;;;;;;;5013502;28;20713;-69
2023/08/25 03:12:00;;;;;;;8.20;4.30;;;;;;;;;;5013578;28;20634;-70
2023/08/25 03:14:26;;;;;;;8.67;4.13;;;;;;;;;;5013521;28;20634;-70
2023/08/25 03:16:52;;;;;;;6.97;4.33;;;;;;;;;;5012829;28;20173;-68
2023/08/25 03:19:18;;;;;;;12.90;4.73;;;;;;;;;;5012031;28;20204;-70
2023/08/25 03:21:44;;;;;;;9.47;4.50;;;;;;;;;;5013251;28;20603;-70
2023/08/25 03:24:10;;;;;;;6.40;3.80;;;;;;;;;;5013632;28;20180;-69
2023/08/25 03:26:36;;;;;;;7.00;3.60;;;;;;;;;;5013292;28;20184;-68
2023/08/25 03:29:02;;;;;;;10.50;4.47;;;;;;;;;;5012135;28;20747;-70
2023/08/25 03:31:28;;;;;;;7.70;4.30;;;;;;;;;;5013183;28;20686;-69
2023/08/25 03:33:54;;;;;;;10.83;4.87;;;;;;;;;;5012162;28;20899;-68
2023/08/25 03:36:20;;;;;;;8.23;4.40;;;;;;;;;;5012962;28;20622;-70
2023/08/25 03:38:46;;;;;;;9.93;4.10;;;;;;;;;;5012191;28;20196;-69
2023/08/25 03:41:12;;;;;;;8.90;4.40;;;;;;;;;;5012992;28;20183;-70
2023/08/25 03:43:38;;;;;;;6.17;4.10;;;;;;;;;;5012876;28;20650;-69
2023/08/25 03:46:04;;;;;;;8.30;4.30;;;;;;;;;;5012885;28;20177;-69
2023/08/25 03:48:30;;;;;;;6.70;4.43;;;;;;;;;;5026323;28;20193;-69
2023/08/25 03:50:56;;;;;;;5.73;4.07;;;;;;;;;;5012577;28;20250;-69
2023/08/25 03:53:22;;;;;;;5.90;4.03;;;;;;;;;;5013063;28;20177;-70
2023/08/25 03:55:48;;;;;;;6.43;4.30;;;;;;;;;;5012815;28;20195;-69
2023/08/25 03:58:14;;;;;;;7.53;4.47;;;;;;;;;;5011908;28;20180;-67
2023/08/25 04:00:40;;;;;;;11.00;4.20;;;;;;;;;;5012657;28;20267;-68
2023/08/25 04:03:06;;;;;;;7.23;4.60;;;;;;;;;;5011586;28;20181;-69
2023/08/25 04:05:33;;;;;;;12.47;4.10;;;;;;;;;;5012391;28;20231;-69
2023/08/25 04:07:58;;;;;;;10.07;4.20;;;;;;;;;;5011689;28;20175;-70
2023/08/25 04:10:24;;;;;;;6.80;4.00;;;;;;;;;;5012428;28;20294;-69
2023/08/25 04:12:50;;;;;;;11.33;4.00;;;;;;;;;;5012360;28;20177;-69
2023/08/25 04:15:16;;;;;;;7.33;3.77;;;;;;;;;;5012329;28;20173;-69
2023/08/25 04:17:42;;;;;;;8.67;4.40;;;;;;;;;;5011575;28;20184;-70
2023/08/25 04:20:10;;;;;;;8.47;4.40;;;;;;;;;;5011822;28;20298;-71
2023/08/25 04:22:36;;;;;;;10.10;4.20;;;;;;;;;;5011110;28;20604;-70
2023/08/25 04:25:02;;;;;;;8.53;4.00;;;;;;;;;;5012179;28;20255;-71
2023/08/25 04:27:28;;;;;;;7.13;3.77;;;;;;;;;;5011349;28;20180;-70
2023/08/25 04:29:53;;;;;;;9.63;4.23;;;;;;;;;;5011933;28;20793;-70
2023/08/25 04:32:19;;;;;;;9.33;4.40;;;;;;;;;;5012060;28;20263;-71
2023/08/25 04:34:45;;;;;;;13.33;5.60;;;;;;;;;;5011966;28;20180;-70
2023/08/25 04:37:11;;;;;;;17.73;6.53;;;;;;;;;;5011210;28;20177;-70
2023/08/25 04:39:37;;;;;;;19.10;6.43;;;;;;;;;;5011824;28;20200;-69
2023/08/25 04:42:03;;;;;;;18.90;7.00;;;;;;;;;;5010673;28;20232;-70
2023/08/25 04:44:29;;;;;;;28.17;7.00;;;;;;;;;;5012070;28;20200;-69
2023/08/25 04:46:55;;;;;;;23.53;7.63;;;;;;;;;;5010990;28;20195;-70
2023/08/25 04:49:21;;;;;;;25.87;7.87;;;;;;;;;;5010553;28;20270;-70
2023/08/25 04:51:47;;;;;;;27.73;8.33;;;;;;;;;;5010963;28;20183;-71
2023/08/25 04:54:13;;;;;;;26.03;8.97;;;;;;;;;;5011256;28;20183;-70
2023/08/25 04:56:39;;;;;;;24.53;8.23;;;;;;;;;;5010932;28;20172;-71
2023/08/25 04:59:05;;;;;;;28.23;8.80;;;;;;;;;;5010269;28;20204;-70
2023/08/25 05:01:31;;;;;;;24.63;8.37;;;;;;;;;;5010493;28;20234;-70
2023/08/25 05:03:57;;;;;;;22.80;8.40;;;;;;;;;;5011181;28;20182;-69
2023/08/25 05:06:23;;;;;;;21.20;8.70;;;;;;;;;;5009519;28;20646;-71
2023/08/25 05:08:48;;;;;;;24.50;9.20;;;;;;;;;;5009887;28;20830;-70
2023/08/25 05:11:16;;;;;;;24.07;8.93;;;;;;;;;;5009595;28;20622;-70
2023/08/25 05:13:42;;;;;;;24.20;9.23;;;;;;;;;;5010972;28;20188;-68
2023/08/25 05:16:08;;;;;;;26.93;10.07;;;;;;;;;;5010221;28;20181;-69
2023/08/25 05:18:34;;;;;;;28.73;9.77;;;;;;;;;;5025150;28;20200;-70
2023/08/25 05:21:00;;;;;;;31.70;8.97;;;;;;;;;;5010860;28;20188;-70
2023/08/25 05:23:27;;;;;;;23.73;9.73;;;;;;;;;;5026021;28;20180;-70
2023/08/25 05:25:53;;;;;;;26.10;9.67;;;;;;;;;;5010654;28;20177;-70
2023/08/25 05:28:19;;;;;;;31.13;10.77;;;;;;;;;;5008832;28;20568;-70
2023/08/25 05:30:50;;;;;;;27.90;10.30;;;;;;;;;;5010514;28;20208;-70
2023/08/25 05:33:16;;;;;;;23.37;9.77;;;;;;;;;;5010699;28;20180;-70
2023/08/25 05:35:43;;;;;;;25.37;9.17;;;;;;;;;;5010564;28;20689;-70
2023/08/25 05:38:09;;;;;;;27.87;10.20;;;;;;;;;;5024701;28;20622;-70
2023/08/25 05:40:35;;;;;;;26.37;9.43;;;;;;;;;;5010404;28;20187;-70
2023/08/25 05:43:00;;;;;;;23.00;9.53;;;;;;;;;;5010485;28;20207;-70
2023/08/25 05:45:26;;;;;;;22.53;8.80;;;;;;;;;;5010508;28;20181;-69
2023/08/25 05:47:52;;;;;;;21.30;9.80;;;;;;;;;;5009725;28;20185;-70
2023/08/25 05:50:18;;;;;;;20.73;8.73;;;;;;;;;;5010378;28;20262;-69
2023/08/25 05:52:45;;;;;;;26.70;8.63;;;;;;;;;;5010523;28;20247;-71
2023/08/25 05:55:14;;;;;;;18.60;8.30;;;;;;;;;;5010360;28;20202;-70
2023/08/25 05:57:40;;;;;;;16.13;7.50;;;;;;;;;;5009724;28;20653;-70
2023/08/25 06:00:07;;;;;;;11.43;6.73;;;;;;;;;;5010318;28;20607;-71
2023/08/25 06:02:33;;;;;;;13.03;6.07;;;;;;;;;;5025379;28;20215;-70
2023/08/25 06:04:59;;;;;;;17.23;7.23;;;;;;;;;;5010297;28;20208;-71
2023/08/25 06:07:25;;;;;;;16.03;7.30;;;;;;;;;;5009473;28;20184;-71
2023/08/25 06:09:51;;;;;;;12.97;7.07;;;;;;;;;;5010031;28;20204;-70
2023/08/25 06:12:17;;;;;;;17.63;8.00;;;;;;;;;;5025117;28;20215;-70
2023/08/25 06:14:43;;;;;;;18.67;8.00;;;;;;;;;;5010109;28;20248;-71
2023/08/25 06:17:09;;;;;;;25.03;9.60;;;;;;;;;;5009466;28;20666;-70
2023/08/25 06:19:37;;;;;;;21.47;8.63;;;;;;;;;;5009595;28;20228;-70
2023/08/25 06:22:03;;;;;;;20.77;9.23;;;;;;;;;;5009949;28;20181;-70
2023/08/25 06:24:29;;;;;;;23.60;9.50;;;;;;;;;;5009902;28;20176;-71
2023/08/25 06:26:55;;;;;;;25.73;10.53;;;;;;;;;;5009459;28;20203;-69
2023/08/25 06:29:21;;;;;;;20.67;9.10;;;;;;;;;;5012850;28;20310;-69
2023/08/25 06:31:47;;;;;;;25.27;11.90;;;;;;;;;;5012920;28;20559;-67
2023/08/25 06:34:14;;;;;;;19.77;8.83;;;;;;;;;;5013616;28;20322;-69
2023/08/25 06:36:40;;;;;;;21.93;10.13;;;;;;;;;;5013430;28;20181;-69
2023/08/25 06:39:06;;;;;;;24.03;10.50;;;;;;;;;;5012813;28;20207;-71
2023/08/25 06:41:31;;;;;;;35.37;11.27;;;;;;;;;;5013412;28;20172;-70
2023/08/25 06:43:59;;;;;;;31.17;11.20;;;;;;;;;;5013351;28;20227;-69
2023/08/25 06:46:25;;;;;;;21.23;9.43;;;;;;;;;;5013391;28;20182;-70
2023/08/25 06:48:51;;;;;;;22.10;9.10;;;;;;;;;;5012566;28;20197;-72
2023/08/25 06:51:17;;;;;;;16.97;8.47;;;;;;;;;;5013254;28;20227;-72
2023/08/25 06:53:42;;;;;;;20.17;8.70;;;;;;;;;;5028464;28;20845;-71
2023/08/25 06:56:09;;;;;;;16.43;8.00;;;;;;;;;;5012035;28;20682;-70
2023/08/25 06:58:36;;;;;;;19.90;7.90;;;;;;;;;;5012616;28;20923;-70
2023/08/25 07:01:02;;;;;;;15.70;7.97;;;;;;;;;;5013136;28;20195;-70
2023/08/25 07:03:28;;;;;;;18.40;7.83;;;;;;;;;;5011897;28;20674;-70
2023/08/25 07:05:58;;;;;;;14.17;7.30;;;;;;;;;;5013123;28;20722;-69
2023/08/25 07:08:25;;;;;;;20.00;7.73;;;;;;;;;;5027342;28;20680;-70
2023/08/25 07:10:51;;;;;;;15.30;7.47;;;;;;;;;;5012854;28;20231;-70
2023/08/25 07:13:17;;;;;;;20.80;7.70;;;;;;;;;;5012866;28;20718;-71
2023/08/25 07:15:43;;;;;;;13.27;7.33;;;;;;;;;;5012945;28;20176;-70
2023/08/25 07:18:09;;;;;;;16.83;8.73;;;;;;;;;;5012110;28;20200;-69
2023/08/25 07:20:35;;;;;;;13.43;7.53;;;;;;;;;;5012845;28;20278;-70
2023/08/25 07:23:01;;;;;;;12.10;7.50;;;;;;;;;;5012665;28;20184;-70
2023/08/25 07:25:27;;;;;;;12.70;7.93;;;;;;;;;;5012563;28;20277;-69
2023/08/25 07:27:53;;;;;;;18.47;9.50;;;;;;;;;;5012017;28;20661;-72
2023/08/25 07:30:19;;;;;;;17.17;8.43;;;;;;;;;;5012431;28;20692;-70
2023/08/25 07:32:45;;;;;;;14.33;8.33;;;;;;;;;;5012567;28;20181;-71
2023/08/25 07:35:11;;;;;;;12.93;7.60;;;;;;;;;;5012636;28;20176;-70
2023/08/25 07:37:41;;;;;;;12.47;7.47;;;;;;;;;;5011694;28;20176;-70
2023/08/25 07:40:07;;;;;;;14.88;9.38;;;;;;;;;;5011176;28;20476;-69
2023/08/25 07:42:33;;;;;;;15.40;9.03;;;;;;;;;;5011495;28;20231;-70
2023/08/25 07:44:59;;;;;;;15.80;8.60;;;;;;;;;;5012512;28;20164;-70
2023/08/25 07:47:25;;;;;;;13.27;8.43;;;;;;;;;;5011679;28;20215;-70
2023/08/25 07:49:51;;;;;;;32.07;16.63;;;;;;;;;;5012135;28;20248;-72
2023/08/25 07:52:17;;;;;;;14.67;8.77;;;;;;;;;;5012036;28;20181;-70
2023/08/25 07:54:43;;;;;;;12.93;8.13;;;;;;;;;;5012036;28;20196;-70
2023/08/25 07:57:09;;;;;;;19.57;8.93;;;;;;;;;;5011651;28;20665;-70
2023/08/25 07:59:35;;;;;;;15.97;9.00;;;;;;;;;;5011401;28;20253;-73
2023/08/25 08:02:02;;;;;;;17.90;8.30;;;;;;;;;;5011776;28;20215;-71
2023/08/25 08:04:30;;;;;;;13.27;8.30;;;;;;;;;;5012021;28;20181;-70
2023/08/25 08:06:57;;;;;;;14.27;8.63;;;;;;;;;;5011427;28;20183;-71
2023/08/25 08:09:23;;;;;;;11.17;7.90;;;;;;;;;;5011813;28;20645;-71
2023/08/25 08:11:49;;;;;;;16.30;8.70;;;;;;;;;;5011902;28;20180;-70
2023/08/25 08:14:15;;;;;;;14.43;7.77;;;;;;;;;;5011811;28;20184;-70
2023/08/25 08:16:41;;;;;;;15.10;8.63;;;;;;;;;;5010447;28;20200;-70
2023/08/25 08:19:07;;;;;;;14.03;7.73;;;;;;;;;;5011927;28;20228;-72
2023/08/25 08:21:33;;;;;;;16.20;8.40;;;;;;;;;;5011400;28;20271;-72
2023/08/25 08:24:00;;;;;;;13.87;8.03;;;;;;;;;;5011992;28;20578;-70
2023/08/25 08:26:26;;;;;;;11.33;7.67;;;;;;;;;;5011594;28;20176;-72
2023/08/25 08:28:52;;;;;;;13.47;7.33;;;;;;;;;;5025858;28;20219;-72
2023/08/25 08:31:18;;;;;;;13.13;7.10;;;;;;;;;;5011373;28;20209;-71
2023/08/25 08:33:47;;;;;;;11.40;8.00;;;;;;;;;;5011846;28;20236;-73
2023/08/25 08:36:15;;;;;;;14.50;7.63;;;;;;;;;;5026127;28;20197;-72
2023/08/25 08:38:40;;;;;;;13.27;7.50;;;;;;;;;;5010816;28;20250;-70
2023/08/25 08:41:06;;;;;;;11.43;7.57;;;;;;;;;;5011361;28;20597;-72
2023/08/25 08:43:38;;;;;;;11.57;7.60;;;;;;;;;;5026037;28;20181;-72
2023/08/25 08:46:04;;;;;;;16.80;8.07;;;;;;;;;;5009928;28;20191;-71
2023/08/25 08:48:31;;;;;;;13.33;7.10;;;;;;;;;;5025805;28;20247;-71
2023/08/25 08:50:57;;;;;;;10.77;7.67;;;;;;;;;;5010183;28;20205;-72
2023/08/25 08:53:24;;;;;;;12.47;7.10;;;;;;;;;;5026315;28;20242;-72
2023/08/25 08:55:51;;;;;;;13.07;7.73;;;;;;;;;;5025729;28;20284;-71
2023/08/25 08:58:17;;;;;;;12.00;6.97;;;;;;;;;;5008864;28;20639;-71
2023/08/25 09:00:43;;;;;;;12.87;7.23;;;;;;;;;;5011030;28;20188;-70
2023/08/25 09:03:09;;;;;;;10.23;7.97;;;;;;;;;;5009497;28;20191;-71
2023/08/25 09:05:35;;;;;;;13.30;7.00;;;;;;;;;;5011036;28;20184;-71
2023/08/25 09:08:02;;;;;;;10.00;6.80;;;;;;;;;;5025095;28;20184;-72
2023/08/25 09:10:28;;;;;;;13.93;7.23;;;;;;;;;;5025785;28;20204;-72
2023/08/25 09:12:54;;;;;;;13.10;7.17;;;;;;;;;;5010819;28;20221;-73
2023/08/25 09:15:27;;;;;;;9.43;6.70;;;;;;;;;;5026057;28;20577;-72
2023/08/25 09:17:53;;;;;;;14.47;7.10;;;;;;;;;;5010037;28;20206;-71
2023/08/25 09:20:20;;;;;;;10.37;5.93;;;;;;;;;;5010345;28;20203;-71
2023/08/25 09:22:55;;;;;;;13.13;7.20;;;;;;;;;;5010737;28;20183;-71
2023/08/25 09:25:21;;;;;;;10.33;6.67;;;;;;;;;;5010641;28;20548;-70
2023/08/25 09:27:47;;;;;;;13.87;6.73;;;;;;;;;;5010058;28;20557;-72
2023/08/25 09:30:14;;;;;;;13.73;6.60;;;;;;;;;;5010756;28;20208;-70
2023/08/25 09:32:40;;;;;;;11.63;6.30;;;;;;;;;;5010524;28;20175;-71
2023/08/25 09:35:18;;;;;;;10.23;5.80;;;;;;;;;;5010471;28;20534;-71
2023/08/25 09:37:45;;;;;;;14.33;6.53;;;;;;;;;;5009934;28;20178;-74
2023/08/25 09:40:12;;;;;;;13.27;6.33;;;;;;;;;;5010577;28;20189;-72
2023/08/25 09:42:38;;;;;;;9.70;6.60;;;;;;;;;;5024474;28;20275;-71
2023/08/25 09:45:04;;;;;;;10.60;6.57;;;;;;;;;;5010572;28;20637;-72
2023/08/25 09:47:30;;;;;;;10.20;6.70;;;;;;;;;;5009736;28;20190;-69
2023/08/25 09:49:56;;;;;;;10.63;5.83;;;;;;;;;;5023856;28;20208;-71
2023/08/25 09:52:22;;;;;;;16.00;7.20;;;;;;;;;;5009197;28;20176;-71
2023/08/25 09:54:48;;;;;;;8.63;6.20;;;;;;;;;;5025310;28;20170;-71
2023/08/25 09:57:14;;;;;;;13.17;6.40;;;;;;;;;;5024812;28;20652;-71
2023/08/25 09:59:40;;;;;;;8.13;5.97;;;;;;;;;;5025102;28;20670;-71
2023/08/25 10:02:06;;;;;;;10.20;6.07;;;;;;;;;;5011753;28;20599;-70
2023/08/25 10:04:32;;;;;;;9.37;6.30;;;;;;;;;;5014288;28;20177;-71
2023/08/25 10:06:59;;;;;;;11.40;6.93;;;;;;;;;;5028738;28;20633;-70
2023/08/25 10:09:25;;;;;;;11.07;6.77;;;;;;;;;;5014141;28;20260;-71
2023/08/25 10:11:51;;;;;;;15.27;7.50;;;;;;;;;;5029225;28;20174;-72
2023/08/25 10:14:17;;;;;;;10.80;7.20;;;;;;;;;;5014507;28;20270;-70
2023/08/25 10:16:49;;;;;;;10.03;6.43;;;;;;;;;;5014415;28;20204;-70
2023/08/25 10:19:18;;;;;;;13.83;6.53;;;;;;;;;;5014483;28;20217;-70
2023/08/25 10:21:44;;;;;;;11.83;7.30;;;;;;;;;;5029485;28;20203;-70
2023/08/25 10:24:10;;;;;;;12.57;7.03;;;;;;;;;;5014951;28;20270;-71
2023/08/25 10:26:36;;;;;;;14.10;6.83;;;;;;;;;;5030473;28;20249;-70
2023/08/25 10:29:02;;;;;;;15.07;7.30;;;;;;;;;;5014555;28;20218;-71
2023/08/25 10:31:30;;;;;;;15.77;7.17;;;;;;;;;;5030166;28;20185;-70
2023/08/25 10:33:56;;;;;;;9.67;6.30;;;;;;;;;;5030188;28;20172;-72
2023/08/25 10:36:23;;;;;;;8.57;6.53;;;;;;;;;;5029948;28;20487;-72
2023/08/25 10:38:55;;;;;;;18.70;6.20;;;;;;;;;;5012609;28;20236;-71
2023/08/25 10:41:23;;;;;;;10.57;5.87;;;;;;;;;;5014663;28;20730;-72
2023/08/25 10:43:52;;;;;;;17.40;6.30;;;;;;;;;;5029042;28;20662;-71
2023/08/25 10:46:20;;;;;;;11.43;6.50;;;;;;;;;;5028954;28;20599;-71
2023/08/25 10:48:46;;;;;;;14.90;6.57;;;;;;;;;;5013019;28;20208;-71
2023/08/25 10:51:16;;;;;;;12.00;6.30;;;;;;;;;;5013505;28;20225;-72
2023/08/25 10:53:45;;;;;;;9.97;6.00;;;;;;;;;;5013436;28;20177;-72
2023/08/25 10:56:23;;;;;;;10.47;5.73;;;;;;;;;;5013549;28;20293;-74
2023/08/25 10:58:56;;;;;;;11.07;5.50;;;;;;;;;;5012327;28;20685;-71
2023/08/25 11:01:38;;;;;;;8.43;5.77;;;;;;;;;;5026823;28;20176;-71
2023/08/25 11:04:11;;;;;;;10.80;5.50;;;;;;;;;;5013007;28;20176;-72
2023/08/25 11:06:41;;;;;;;7.73;5.23;;;;;;;;;;5028026;28;20181;-71
2023/08/25 11:09:08;;;;;;;9.37;5.27;;;;;;;;;;5027864;28;20227;-71
2023/08/25 11:11:35;;;;;;;6.97;4.33;;;;;;;;;;5013000;28;20670;-72
2023/08/25 11:14:01;;;;;;;6.90;4.37;;;;;;;;;;5012036;28;20191;-72
2023/08/25 11:16:27;;;;;;;7.83;3.87;;;;;;;;;;5012912;28;20544;-72
2023/08/25 11:18:53;;;;;;;8.17;4.10;;;;;;;;;;5027091;28;20199;-71
2023/08/25 11:21:29;;;;;;;8.80;4.20;;;;;;;;;;5012721;28;20187;-69
2023/08/25 11:23:55;;;;;;;11.27;4.80;;;;;;;;;;5027974;28;20194;-72
2023/08/25 11:26:22;;;;;;;7.20;3.73;;;;;;;;;;5012910;28;20188;-71
2023/08/25 11:28:51;;;;;;;7.03;3.67;;;;;;;;;;5012110;28;20211;-71
2023/08/25 11:31:17;;;;;;;8.23;4.23;;;;;;;;;;5027764;28;20192;-71
2023/08/25 11:33:44;;;;;;;10.77;4.50;;;;;;;;;;5012524;28;20233;-72
2023/08/25 11:36:15;;;;;;;9.90;4.53;;;;;;;;;;5027549;28;20187;-71
2023/08/25 11:38:41;;;;;;;8.50;4.30;;;;;;;;;;5011880;28;20206;-71
2023/08/25 11:41:07;;;;;;;8.83;4.27;;;;;;;;;;5027630;28;20642;-71
2023/08/25 11:43:34;;;;;;;8.10;4.43;;;;;;;;;;5012505;28;20625;-72
2023/08/25 11:46:00;;;;;;;10.13;4.17;;;;;;;;;;5013033;28;20236;-72
2023/08/25 11:48:26;;;;;;;8.93;4.27;;;;;;;;;;5026846;28;20686;-72
2023/08/25 11:50:52;;;;;;;9.93;4.50;;;;;;;;;;5012271;28;20285;-71
2023/08/25 11:53:18;;;;;;;6.73;4.07;;;;;;;;;;5012187;28;20261;-71
2023/08/25 11:56:10;;;;;;;6.77;4.10;;;;;;;;;;5027323;28;20175;-72
2023/08/25 11:58:36;;;;;;;6.03;4.30;;;;;;;;;;5010419;28;20520;-69
2023/08/25 12:01:05;;;;;;;6.10;4.20;;;;;;;;;;5012484;28;20187;-72
2023/08/25 12:03:31;;;;;;;7.77;3.90;;;;;;;;;;5012141;28;20237;-72
2023/08/25 12:05:57;;;;;;;7.43;4.07;;;;;;;;;;5011964;28;20184;-71
2023/08/25 12:08:25;;;;;;;8.90;4.03;;;;;;;;;;5011514;28;20212;-71
2023/08/25 12:10:50;;;;;;;5.50;3.93;;;;;;;;;;5011959;28;20226;-71
2023/08/25 12:13:23;;;;;;;7.60;4.17;;;;;;;;;;5011769;28;20639;-73
2023/08/25 12:15:51;;;;;;;7.40;4.13;;;;;;;;;;5012128;28;20165;-73
2023/08/25 12:18:17;;;;;;;8.73;3.50;;;;;;;;;;5026128;28;20630;-72
2023/08/25 12:20:43;;;;;;;5.87;3.60;;;;;;;;;;5012413;28;20267;-72
2023/08/25 12:23:09;;;;;;;8.40;3.70;;;;;;;;;;5011719;28;20190;-72
2023/08/25 12:25:35;;;;;;;5.73;3.40;;;;;;;;;;5011851;28;20181;-72
2023/08/25 12:28:01;;;;;;;6.73;3.87;;;;;;;;;;5011344;28;20194;-73
2023/08/25 12:30:29;;;;;;;8.50;4.07;;;;;;;;;;5026614;28;20204;-72
2023/08/25 12:32:55;;;;;;;5.40;3.80;;;;;;;;;;5011573;28;20246;-72
2023/08/25 12:35:22;;;;;;;6.67;4.30;;;;;;;;;;5012199;28;20242;-72
2023/08/25 12:37:48;;;;;;;6.43;3.93;;;;;;;;;;5011404;28;20626;-71
2023/08/25 12:40:20;;;;;;;6.57;4.20;;;;;;;;;;5011552;28;20206;-71
2023/08/25 12:42:45;;;;;;;7.93;4.03;;;;;;;;;;5010613;28;20259;-72
2023/08/25 12:45:11;;;;;;;9.70;4.03;;;;;;;;;;5009995;28;20378;-71
2023/08/25 12:47:37;;;;;;;8.93;4.40;;;;;;;;;;5010791;28;20180;-72
2023/08/25 12:50:03;;;;;;;9.37;4.93;;;;;;;;;;5011069;28;20253;-72
2023/08/25 12:52:33;;;;;;;8.00;4.67;;;;;;;;;;5011247;28;20176;-71
2023/08/25 12:54:59;;;;;;;10.73;4.90;;;;;;;;;;5011210;28;20651;-70
2023/08/25 12:57:24;;;;;;;10.33;4.87;;;;;;;;;;5010516;28;20188;-73
2023/08/25 12:59:51;;;;;;;19.57;6.33;;;;;;;;;;5010857;28;20214;-71
2023/08/25 13:02:17;;;;;;;13.80;6.67;;;;;;;;;;5011139;28;20567;-72
2023/08/25 13:04:42;;;;;;;8.60;4.60;;;;;;;;;;5009373;28;20188;-71
2023/08/25 13:07:09;;;;;;;9.53;4.70;;;;;;;;;;5010238;28;20191;-73
2023/08/25 13:09:35;;;;;;;9.83;5.07;;;;;;;;;;5011076;28;20219;-71
2023/08/25 13:12:01;;;;;;;9.30;4.60;;;;;;;;;;5010831;28;20181;-71
2023/08/25 13:14:27;;;;;;;13.53;5.03;;;;;;;;;;5010291;28;20246;-70
2023/08/25 13:16:53;;;;;;;9.50;5.00;;;;;;;;;;5010255;28;20187;-71
2023/08/25 13:19:19;;;;;;;12.30;4.80;;;;;;;;;;5010599;28;20202;-70
2023/08/25 13:21:45;;;;;;;9.63;5.27;;;;;;;;;;5010561;28;20202;-71
2023/08/25 13:24:11;;;;;;;25.40;11.50;;;;;;;;;;5010725;28;20184;-72
2023/08/25 13:26:37;;;;;;;15.93;6.00;;;;;;;;;;5010699;28;20183;-72
2023/08/25 13:29:03;;;;;;;9.90;5.93;;;;;;;;;;5009962;28;20253;-70
2023/08/25 13:31:30;;;;;;;13.73;5.70;;;;;;;;;;5025602;28;20281;-70
2023/08/25 13:33:57;;;;;;;14.03;5.27;;;;;;;;;;5010636;28;20176;-70
2023/08/25 13:36:23;;;;;;;11.20;5.30;;;;;;;;;;5010279;28;20177;-72
2023/08/25 13:38:49;;;;;;;8.07;3.60;;;;;;;;;;5009721;28;20699;-71
2023/08/25 13:41:15;;;;;;;8.17;3.87;;;;;;;;;;5025733;28;20173;-71
2023/08/25 13:43:41;;;;;;;28.47;14.47;;;;;;;;;;5008944;28;20186;-70
2023/08/25 13:46:07;;;;;;;12.13;4.87;;;;;;;;;;5010346;28;20214;-69
2023/08/25 13:48:33;;;;;;;6.00;2.97;;;;;;;;;;5009535;28;20202;-72
2023/08/25 13:50:59;;;;;;;5.73;2.50;;;;;;;;;;5010233;28;20212;-70
2023/08/25 13:53:25;;;;;;;7.50;2.57;;;;;;;;;;5010232;28;20211;-71
2023/08/25 13:55:51;;;;;;;4.20;2.57;;;;;;;;;;5010364;28;20209;-70
2023/08/25 13:58:17;;;;;;;5.67;2.30;;;;;;;;;;5009509;28;20173;-71
2023/08/25 14:00:43;;;;;;;6.60;2.13;;;;;;;;;;5010089;28;20549;-70
2023/08/25 14:03:09;;;;;;;6.03;2.37;;;;;;;;;;5010306;28;20188;-70
2023/08/25 14:05:35;;;;;;;6.60;2.10;;;;;;;;;;5010117;28;20185;-71
2023/08/25 14:08:01;;;;;;;3.70;2.27;;;;;;;;;;5008166;28;20370;-71
2023/08/25 14:10:29;;;;;;;5.60;2.17;;;;;;;;;;5010065;28;20714;-71
2023/08/25 14:12:55;;;;;;;2.60;1.47;;;;;;;;;;5008897;28;20196;-71
2023/08/25 14:15:21;;;;;;;3.07;1.33;;;;;;;;;;5010166;28;20237;-71
2023/08/25 14:17:47;;;;;;;4.53;1.50;;;;;;;;;;5009477;28;20557;-71
2023/08/25 14:20:13;;;;;;;10.10;1.40;;;;;;;;;;5009672;28;20804;-71
2023/08/25 14:22:39;;;;;;;2.53;1.27;;;;;;;;;;5009950;28;20630;-72
2023/08/25 14:25:05;;;;;;;5.03;1.80;;;;;;;;;;5010108;28;20616;-71
2023/08/25 14:27:31;;;;;;;4.70;1.50;;;;;;;;;;5009437;28;20173;-70
2023/08/25 14:29:57;;;;;;;4.03;1.50;;;;;;;;;;5009841;28;20215;-70
2023/08/25 14:32:23;;;;;;;5.57;1.93;;;;;;;;;;5009808;28;20178;-71